createdAt,value
2018-09-29T00:04:51.511Z,11.53
2018-09-29T00:09:44.788Z,11.57
2018-09-29T00:14:37.932Z,11.36
2018-09-29T00:19:31.234Z,11.30
2018-09-29T00:24:24.496Z,11.28
2018-09-29T00:29:17.656Z,11.25
2018-09-29T00:34:10.905Z,11.27
2018-09-29T00:39:05.408Z,11.25
2018-09-29T00:43:59.626Z,11.27
2018-09-29T00:48:52.944Z,11.18
2018-09-29T00:53:46.589Z,11.04
2018-09-29T00:58:39.756Z,11.11
2018-09-29T01:03:33.004Z,10.99
2018-09-29T01:08:26.134Z,11.01
2018-09-29T01:13:19.296Z,11.15
2018-09-29T01:18:12.687Z,10.97
2018-09-29T01:23:06.215Z,10.78
2018-09-29T01:27:59.406Z,10.70
2018-09-29T01:32:52.641Z,10.89
2018-09-29T01:37:45.831Z,10.76
2018-09-29T01:42:39.165Z,10.91
2018-09-29T01:47:32.451Z,11.10
2018-09-29T01:52:25.654Z,11.39
2018-09-29T01:57:18.949Z,11.35
2018-09-29T02:02:12.352Z,11.50
2018-09-29T02:07:05.479Z,11.52
2018-09-29T02:11:58.804Z,11.68
2018-09-29T02:16:51.929Z,11.53
2018-09-29T02:21:45.120Z,11.53
2018-09-29T02:26:38.518Z,11.60
2018-09-29T02:31:31.657Z,11.70
2018-09-29T02:36:24.901Z,11.86
2018-09-29T02:41:18.166Z,11.75
2018-09-29T02:46:11.489Z,11.75
2018-09-29T02:51:04.611Z,11.78
2018-09-29T02:55:58.137Z,11.70
2018-09-29T03:00:51.483Z,11.54
2018-09-29T03:05:44.648Z,11.62
2018-09-29T03:10:37.838Z,11.56
2018-09-29T03:15:31.138Z,11.61
2018-09-29T03:20:24.826Z,11.58
2018-09-29T03:25:18.662Z,11.50
2018-09-29T03:30:11.992Z,11.49
2018-09-29T03:35:05.272Z,11.45
2018-09-29T03:39:58.587Z,11.52
2018-09-29T03:44:52.005Z,11.47
2018-09-29T03:49:45.479Z,11.57
2018-09-29T03:54:38.725Z,11.52
2018-09-29T03:59:31.978Z,11.62
2018-09-29T04:04:25.185Z,11.64
2018-09-29T04:09:18.415Z,11.72
2018-09-29T04:14:11.896Z,11.51
2018-09-29T04:19:05.321Z,11.50
2018-09-29T04:23:58.699Z,11.48
2018-09-29T04:28:52.279Z,11.46
2018-09-29T04:33:45.448Z,11.61
2018-09-29T04:38:40.608Z,11.52
2018-09-29T04:43:34.048Z,11.66
2018-09-29T04:48:27.524Z,11.42
2018-09-29T04:53:21.857Z,11.44
2018-09-29T04:58:15.762Z,11.59
2018-09-29T05:03:09.284Z,11.56
2018-09-29T05:08:02.647Z,11.51
2018-09-29T05:12:56.119Z,11.59
2018-09-29T05:17:58.034Z,11.64
2018-09-29T05:23:03.486Z,11.59
2018-09-29T05:28:03.618Z,11.44
2018-09-29T05:33:02.274Z,11.59
2018-09-29T05:38:03.036Z,11.59
2018-09-29T05:43:01.634Z,11.70
2018-09-29T05:48:04.616Z,11.95
2018-09-29T05:53:04.275Z,12.16
2018-09-29T05:58:09.008Z,12.32
2018-09-29T06:08:23.257Z,12.62
2018-09-29T06:18:46.967Z,13.15
2018-09-29T06:23:40.343Z,13.48
2018-09-29T06:28:33.538Z,13.65
2018-09-29T06:33:26.831Z,13.90
2018-09-29T06:38:20.334Z,14.24
2018-09-29T06:43:13.545Z,14.56
2018-09-29T06:48:06.775Z,14.93
2018-09-29T06:53:00.463Z,15.21
2018-09-29T06:57:55.892Z,15.47
2018-09-29T07:02:49.305Z,15.57
2018-09-29T07:07:43.648Z,15.73
2018-09-29T07:12:36.851Z,15.89
2018-09-29T07:17:30.431Z,16.11
2018-09-29T07:22:23.635Z,16.33
2018-09-29T07:27:17.043Z,16.71
2018-09-29T07:32:10.248Z,16.74
2018-09-29T07:37:03.529Z,16.94
2018-09-29T07:41:56.780Z,17.04
2018-09-29T07:46:50.049Z,17.18
2018-09-29T07:51:43.402Z,17.23
2018-09-29T07:56:36.684Z,17.22
2018-09-29T08:01:30.177Z,17.41
2018-09-29T08:06:23.821Z,17.76
2018-09-29T08:11:17.068Z,18.11
2018-09-29T08:16:10.536Z,18.38
2018-09-29T08:21:03.816Z,18.62
2018-09-29T08:25:57.244Z,18.65
2018-09-29T08:30:50.476Z,18.63
2018-09-29T08:35:43.946Z,18.65
2018-09-29T08:40:37.338Z,19.04
2018-09-29T08:45:30.725Z,18.89
2018-09-29T08:50:23.992Z,18.88
2018-09-29T08:55:17.281Z,19.19
2018-09-29T09:00:10.443Z,19.18
2018-09-29T09:05:03.689Z,19.30
2018-09-29T09:09:57.167Z,19.29
2018-09-29T09:14:50.840Z,19.30
2018-09-29T09:19:44.077Z,19.22
2018-09-29T09:24:37.516Z,19.26
2018-09-29T09:29:30.955Z,19.38
2018-09-29T09:34:24.272Z,19.33
2018-09-29T09:39:17.588Z,19.57
2018-09-29T09:44:11.654Z,19.57
2018-09-29T09:49:05.036Z,19.62
2018-09-29T09:53:58.340Z,19.59
2018-09-29T09:58:51.845Z,19.64
2018-09-29T10:03:44.992Z,19.95
2018-09-29T10:08:38.428Z,20.10
2018-09-29T10:13:31.689Z,20.39
2018-09-29T10:18:25.054Z,20.54
2018-09-29T10:23:18.271Z,20.62
2018-09-29T10:28:11.702Z,20.80
2018-09-29T10:33:05.288Z,20.78
2018-09-29T10:37:58.991Z,20.72
2018-09-29T10:42:52.250Z,20.70
2018-09-29T10:47:45.477Z,20.21
2018-09-29T10:52:39.459Z,20.20
2018-09-29T10:57:32.798Z,20.04
2018-09-29T11:02:26.428Z,19.91
2018-09-29T11:07:19.685Z,20.03
2018-09-29T11:12:13.041Z,20.35
2018-09-29T11:17:06.299Z,20.36
2018-09-29T11:21:59.626Z,20.48
2018-09-29T11:26:52.922Z,20.81
2018-09-29T11:31:46.151Z,21.06
2018-09-29T11:36:39.445Z,21.05
2018-09-29T11:41:32.884Z,20.74
2018-09-29T11:46:26.313Z,20.78
2018-09-29T11:51:19.683Z,20.87
2018-09-29T11:56:13.162Z,20.92
2018-09-29T12:01:06.581Z,21.03
2018-09-29T12:06:00.111Z,21.13
2018-09-29T12:10:53.283Z,21.06
2018-09-29T12:15:46.972Z,20.91
2018-09-29T12:20:40.602Z,21.03
2018-09-29T12:25:34.094Z,21.28
2018-09-29T12:30:27.931Z,21.39
2018-09-29T12:35:21.445Z,21.15
2018-09-29T12:40:14.653Z,21.08
2018-09-29T12:45:07.987Z,21.02
2018-09-29T12:50:01.536Z,20.02
2018-09-29T12:54:54.976Z,19.55
2018-09-29T12:59:48.550Z,18.96
2018-09-29T13:04:42.177Z,18.33
2018-09-29T13:09:35.650Z,17.15
2018-09-29T13:14:28.951Z,16.74
2018-09-29T13:19:22.286Z,16.32
2018-09-29T13:24:15.558Z,15.88
2018-09-29T13:29:08.852Z,15.56
2018-09-29T13:34:02.909Z,15.47
2018-09-29T13:38:56.099Z,15.37
2018-09-29T13:43:49.409Z,15.36
2018-09-29T13:48:42.823Z,15.18
2018-09-29T13:53:36.490Z,15.19
2018-09-29T13:58:29.784Z,15.25
2018-09-29T14:03:23.433Z,15.19
2018-09-29T14:08:17.304Z,15.21
2018-09-29T14:13:11.016Z,15.41
2018-09-29T14:18:04.600Z,15.54
2018-09-29T14:22:59.055Z,15.54
2018-09-29T14:27:52.307Z,15.45
2018-09-29T14:32:45.806Z,15.36
2018-09-29T14:37:39.472Z,15.32
2018-09-29T14:42:32.798Z,15.41
2018-09-29T14:47:26.180Z,15.29
2018-09-29T14:52:19.507Z,15.39
2018-09-29T14:57:13.901Z,15.44
2018-09-29T15:02:07.071Z,15.45
2018-09-29T15:07:00.467Z,15.45
2018-09-29T15:11:54.156Z,15.53
2018-09-29T15:16:47.470Z,15.59
2018-09-29T15:21:40.738Z,15.66
2018-09-29T15:26:34.016Z,15.72
2018-09-29T15:31:27.292Z,15.78
2018-09-29T15:36:20.672Z,15.80
2018-09-29T15:41:14.026Z,15.83
2018-09-29T15:46:07.267Z,15.82
2018-09-29T15:51:00.725Z,15.84
2018-09-29T15:55:59.567Z,15.83
2018-09-29T16:00:53.452Z,15.84
2018-09-29T16:05:46.641Z,15.71
2018-09-29T16:10:40.075Z,15.77
2018-09-29T16:15:34.635Z,15.72
2018-09-29T16:20:28.246Z,15.67
2018-09-29T16:25:22.440Z,15.66
2018-09-29T16:30:15.874Z,15.67
2018-09-29T16:35:09.374Z,15.80
2018-09-29T16:40:02.629Z,15.60
2018-09-29T16:44:56.062Z,15.66
2018-09-29T16:49:49.340Z,15.66
2018-09-29T16:54:43.003Z,15.60
2018-09-29T16:59:36.328Z,15.53
2018-09-29T17:04:29.755Z,15.43
2018-09-29T17:09:23.212Z,15.49
2018-09-29T17:14:16.562Z,15.47
2018-09-29T17:19:09.797Z,15.43
2018-09-29T17:24:03.136Z,15.38
2018-09-29T17:28:56.950Z,15.33
2018-09-29T17:33:50.321Z,15.26
2018-09-29T17:38:44.680Z,15.16
2018-09-29T17:43:37.942Z,15.18
2018-09-29T17:48:32.378Z,15.23
2018-09-29T17:53:26.687Z,15.29
2018-09-29T17:58:20.460Z,15.27
2018-09-29T18:03:13.764Z,15.20
2018-09-29T18:08:07.177Z,15.10
2018-09-29T18:13:01.052Z,15.06
2018-09-29T18:17:54.299Z,15.05
2018-09-29T18:22:47.893Z,14.94
2018-09-29T18:27:42.408Z,14.89
2018-09-29T18:32:35.704Z,14.84
2018-09-29T18:37:29.061Z,14.83
2018-09-29T18:42:22.527Z,14.95
2018-09-29T18:47:15.743Z,14.92
2018-09-29T18:52:09.255Z,14.96
2018-09-29T18:57:02.531Z,14.94
2018-09-29T19:01:55.856Z,15.12
2018-09-29T19:06:49.210Z,15.31
2018-09-29T19:11:43.803Z,15.43
2018-09-29T19:16:38.103Z,15.56
2018-09-29T19:21:31.294Z,15.51
2018-09-29T19:26:24.533Z,15.48
2018-09-29T19:31:18.289Z,15.55
2018-09-29T19:36:11.728Z,15.58
2018-09-29T19:41:04.994Z,15.71
2018-09-29T19:45:58.184Z,15.68
2018-09-29T19:50:51.573Z,15.88
2018-09-29T19:55:44.908Z,15.88
2018-09-29T20:00:38.099Z,15.63
2018-09-29T20:05:31.439Z,15.49
2018-09-29T20:10:24.956Z,15.51
2018-09-29T20:15:18.255Z,15.62
2018-09-29T20:20:11.943Z,15.72
2018-09-29T20:25:05.477Z,15.75
2018-09-29T20:29:58.993Z,15.87
2018-09-29T20:34:52.232Z,15.86
2018-09-29T20:39:45.576Z,15.89
2018-09-29T20:44:38.821Z,15.91
2018-09-29T20:49:32.091Z,15.82
2018-09-29T20:54:25.389Z,15.81
2018-09-29T20:59:18.577Z,15.84
2018-09-29T21:04:11.863Z,15.77
2018-09-29T21:09:06.991Z,15.60
2018-09-29T21:14:00.475Z,15.66
2018-09-29T21:18:53.944Z,15.64
2018-09-29T21:23:47.358Z,15.51
2018-09-29T21:28:40.549Z,15.39
2018-09-29T21:33:37.358Z,15.17
2018-09-29T21:38:30.540Z,15.13
2018-09-29T21:43:23.978Z,15.08
2018-09-29T21:48:17.237Z,14.94
2018-09-29T21:53:10.648Z,14.88
2018-09-29T21:58:03.999Z,14.84
2018-09-29T22:02:57.333Z,14.87
2018-09-29T22:07:50.451Z,14.84
2018-09-29T22:12:43.622Z,14.54
2018-09-29T22:17:36.816Z,14.45
2018-09-29T22:22:30.333Z,14.46
2018-09-29T22:27:23.442Z,14.44
2018-09-29T22:32:16.562Z,14.40
2018-09-29T22:37:09.851Z,14.46
2018-09-29T22:42:03.080Z,14.36
2018-09-29T22:46:56.267Z,14.37
2018-09-29T22:51:49.609Z,14.08
2018-09-29T22:56:42.823Z,14.01
2018-09-29T23:01:35.979Z,13.97
2018-09-29T23:06:29.327Z,13.98
2018-09-29T23:11:22.697Z,14.01
2018-09-29T23:16:15.957Z,14.15
2018-09-29T23:21:09.151Z,14.06
2018-09-29T23:26:02.300Z,14.10
2018-09-29T23:30:55.674Z,14.03
2018-09-29T23:35:48.837Z,14.03
2018-09-29T23:40:42.512Z,13.92
2018-09-29T23:45:35.727Z,13.75
2018-09-29T23:50:29.068Z,13.61
2018-09-29T23:55:22.226Z,13.53
